Alcester, South Dakota
Current Conditions -  °F | °C
As of 5:15 PM on Saturday 25 Oct 2014 (Local Time) from KLRJ Reporting Station
Clear Clear  
Wind Chill: 68°   Ceiling: Unl
Heat Index: 68°   Visibility: 10mi
Dew Point: 34°   Wind: 5mph
Humidity: 28%   Direction: 60°ENE
Pressure: 30.08"   Gusts: NA
Location:  43.02°N, 96.63°W
Report Text: KLRJ 252215Z AUTO 06004KT 10SM CLR 20/01 A3008 RMK AO2
Loading
Personal Weather Stations






























Interactive Weather Map
Tropical Storm Tracking
New forecast layout! Learn more

10-Day Weather Forecast

Advertisements
Track Severe Weather on mobile